createdAt,value
2022-11-16T00:00:29.838Z,19.50
2022-11-16T00:01:29.838Z,19.30
2022-11-16T00:02:29.832Z,19.40
2022-11-16T00:03:30.756Z,18.80
2022-11-16T00:04:29.787Z,17.80
2022-11-16T00:05:29.775Z,18.60
2022-11-16T00:06:29.771Z,18.30
2022-11-16T00:07:29.897Z,18.40
2022-11-16T00:08:30.235Z,18.40
2022-11-16T00:09:29.726Z,18.50
2022-11-16T00:10:29.708Z,18.20
2022-11-16T00:11:29.688Z,17.50
2022-11-16T00:12:29.688Z,17.50
2022-11-16T00:13:29.673Z,18.10
2022-11-16T00:14:29.659Z,17.80
2022-11-16T00:15:29.638Z,18.30
2022-11-16T00:16:29.639Z,17.10
2022-11-16T00:17:29.628Z,17.90
2022-11-16T00:18:30.783Z,19.90
2022-11-16T00:19:29.590Z,18.20
2022-11-16T00:20:29.579Z,16.80
2022-11-16T05:30:53.395Z,17.90
2022-11-16T05:31:00.112Z,19.90
2022-11-16T05:31:58.136Z,20.20
2022-11-16T05:32:58.365Z,22.00
2022-11-16T05:33:58.102Z,20.30
2022-11-16T05:34:58.106Z,21.10
2022-11-16T05:35:59.027Z,21.20
2022-11-16T05:36:59.015Z,21.30
2022-11-16T05:37:58.848Z,21.10
2022-11-16T05:38:58.037Z,22.00
2022-11-16T05:39:58.050Z,21.10
2022-11-16T05:40:58.017Z,21.10
2022-11-16T05:41:58.968Z,20.50
2022-11-16T05:42:57.988Z,19.70
2022-11-16T05:43:57.974Z,20.40
2022-11-16T05:44:57.969Z,20.80
2022-11-16T05:45:57.986Z,20.30
2022-11-16T05:46:57.939Z,19.90
2022-11-16T05:47:57.938Z,19.70
2022-11-16T05:48:57.919Z,19.50
2022-11-16T05:49:57.938Z,19.90
2022-11-16T05:50:57.879Z,20.50
2022-11-16T05:51:57.867Z,19.80
2022-11-16T05:52:57.851Z,20.10
2022-11-16T05:53:58.080Z,20.80
2022-11-16T05:54:57.830Z,20.60
2022-11-16T05:55:57.844Z,19.70
2022-11-16T05:56:57.809Z,20.20
2022-11-16T05:57:57.791Z,20.70
2022-11-16T05:58:57.774Z,19.40
2022-11-16T05:59:57.771Z,19.60
2022-11-16T06:00:57.751Z,18.80
2022-11-16T06:01:57.754Z,19.50
2022-11-16T06:02:57.775Z,18.70
2022-11-16T06:03:57.701Z,19.10
2022-11-16T06:04:57.704Z,19.50
2022-11-16T06:05:57.678Z,19.00
2022-11-16T06:06:57.735Z,20.50
2022-11-16T06:07:57.659Z,18.90
2022-11-16T06:08:57.632Z,19.50
2022-11-16T06:09:57.633Z,19.30
2022-11-16T06:10:57.610Z,20.40
2022-11-16T06:11:57.602Z,20.00
2022-11-16T06:12:57.587Z,19.30
2022-11-16T06:13:57.576Z,18.50
2022-11-16T06:14:57.776Z,18.80
2022-11-16T06:15:57.546Z,18.30
2022-11-16T06:16:57.533Z,19.20
2022-11-16T06:17:57.526Z,19.40
2022-11-16T06:18:57.505Z,18.70
2022-11-16T06:19:57.503Z,18.30
2022-11-16T06:20:57.538Z,19.20
2022-11-16T06:21:57.497Z,19.70
2022-11-16T06:22:57.454Z,18.20
2022-11-16T06:23:57.445Z,19.90
2022-11-16T06:24:57.426Z,18.30
2022-11-16T06:25:57.426Z,19.00
2022-11-16T06:26:57.405Z,19.20
2022-11-16T06:27:57.387Z,19.00
2022-11-16T06:28:57.380Z,19.40
2022-11-16T06:29:57.358Z,18.80
2022-11-16T06:30:57.367Z,19.30
2022-11-16T06:31:57.370Z,21.50
2022-11-16T06:32:57.323Z,22.20
2022-11-16T06:33:57.317Z,19.80
2022-11-16T06:34:57.338Z,18.90
2022-11-16T06:35:57.298Z,18.60
2022-11-16T06:36:57.272Z,19.50
2022-11-16T06:37:57.269Z,19.20
2022-11-16T06:38:57.239Z,18.50
2022-11-16T06:39:57.238Z,18.00
2022-11-16T06:40:57.260Z,18.00
2022-11-16T06:41:57.248Z,18.60
2022-11-16T06:42:57.189Z,19.00
2022-11-16T06:43:57.180Z,18.00
2022-11-16T06:44:57.169Z,18.60
2022-11-16T06:45:57.162Z,17.60
2022-11-16T06:46:57.140Z,17.70
2022-11-16T06:47:57.130Z,18.00
2022-11-16T06:48:57.104Z,18.50
2022-11-16T06:49:57.111Z,17.80
2022-11-16T06:50:57.090Z,17.30
2022-11-16T06:51:57.087Z,17.70
2022-11-16T06:52:57.089Z,18.40
2022-11-16T06:53:57.092Z,19.00
2022-11-16T06:54:57.039Z,18.50
2022-11-16T06:55:57.032Z,25.10
2022-11-16T06:56:57.001Z,40.70
2022-11-16T06:57:56.993Z,44.70
2022-11-16T06:58:56.972Z,43.40
2022-11-16T06:59:56.970Z,32.50
2022-11-16T07:00:56.972Z,27.70
2022-11-16T07:01:57.957Z,21.80
2022-11-16T07:02:57.892Z,22.90
2022-11-16T07:03:56.924Z,22.40
2022-11-16T07:05:02.152Z,22.00
2022-11-16T07:05:57.903Z,21.40
2022-11-16T07:06:57.168Z,19.80
2022-11-16T07:07:57.110Z,19.20
2022-11-16T07:08:56.844Z,19.10
2022-11-16T07:09:56.834Z,19.70
2022-11-16T07:11:01.488Z,19.30
2022-11-16T07:11:57.805Z,18.20
2022-11-16T07:12:56.784Z,19.20
2022-11-16T07:13:56.794Z,18.30
2022-11-16T07:14:56.756Z,19.30
2022-11-16T07:15:56.766Z,18.20
2022-11-16T07:17:00.339Z,17.40
2022-11-16T07:17:57.726Z,17.60
2022-11-16T07:18:56.718Z,19.80
2022-11-16T07:19:56.707Z,19.70
2022-11-16T07:20:56.695Z,19.80
2022-11-16T07:21:56.680Z,19.00
2022-11-16T07:22:56.657Z,19.20
2022-11-16T07:23:56.656Z,18.00
2022-11-16T07:24:56.634Z,19.20
2022-11-16T07:25:56.638Z,17.80
2022-11-16T07:26:56.607Z,18.40
2022-11-16T07:27:56.598Z,17.00
2022-11-16T07:28:56.577Z,17.00
2022-11-16T07:29:56.568Z,16.80
2022-11-16T07:30:56.560Z,16.50
2022-11-16T07:31:56.549Z,15.20
2022-11-16T07:32:56.528Z,16.10
2022-11-16T07:33:57.479Z,15.90
2022-11-16T07:34:59.277Z,15.50
2022-11-16T07:35:56.508Z,15.10
2022-11-16T07:36:56.481Z,16.10
2022-11-16T07:37:56.469Z,15.20
2022-11-16T07:38:56.449Z,15.50
2022-11-16T07:39:56.444Z,14.30
2022-11-16T07:40:56.440Z,15.40
2022-11-16T07:41:56.423Z,15.40
2022-11-16T07:42:56.409Z,15.60
2022-11-16T07:43:56.394Z,15.10
2022-11-16T07:44:56.372Z,14.70
2022-11-16T07:46:00.353Z,14.10
2022-11-16T07:46:57.357Z,14.20
2022-11-16T07:47:56.333Z,14.20
2022-11-16T07:48:56.341Z,15.60
2022-11-16T07:49:56.307Z,14.50
2022-11-16T07:50:56.293Z,14.60
2022-11-16T07:51:56.294Z,14.40
2022-11-16T07:52:56.270Z,14.20
2022-11-16T07:53:56.271Z,13.80
2022-11-16T07:54:56.240Z,14.10
2022-11-16T07:55:56.224Z,13.60
2022-11-16T07:56:56.224Z,14.30
2022-11-16T07:57:56.204Z,13.70
2022-11-16T07:58:57.142Z,13.90
2022-11-16T07:59:56.201Z,13.20
2022-11-16T08:00:56.166Z,14.40
2022-11-16T08:01:56.186Z,14.30
2022-11-16T08:02:56.134Z,13.40
2022-11-16T08:03:56.123Z,13.50
2022-11-16T08:04:57.055Z,13.40
2022-11-16T08:05:56.104Z,13.40
2022-11-16T08:06:56.130Z,13.60
2022-11-16T08:07:56.065Z,13.50
2022-11-16T08:08:58.624Z,13.70
2022-11-16T08:09:57.066Z,13.60
2022-11-16T08:10:56.036Z,12.90
2022-11-16T08:11:56.061Z,13.00
2022-11-16T08:12:56.006Z,12.90
2022-11-16T08:13:55.987Z,13.40
2022-11-16T08:14:55.976Z,13.00
2022-11-16T08:15:55.960Z,12.70
2022-11-16T08:16:55.957Z,13.40
2022-11-16T08:17:55.929Z,14.00
2022-11-16T08:18:55.920Z,14.10
2022-11-16T08:19:55.902Z,13.30
2022-11-16T08:20:55.888Z,14.50
2022-11-16T08:21:55.887Z,13.50
2022-11-16T08:22:55.868Z,14.40
2022-11-16T08:23:58.670Z,14.10
2022-11-16T08:24:55.878Z,14.00
2022-11-16T08:25:55.828Z,13.80
2022-11-16T08:26:55.824Z,14.50
2022-11-16T08:27:55.799Z,14.60
2022-11-16T08:28:55.791Z,15.00
2022-11-16T08:29:55.777Z,14.70
2022-11-16T08:30:55.769Z,14.00
2022-11-16T08:31:55.759Z,13.40
2022-11-16T08:32:55.738Z,14.90
2022-11-16T08:33:55.720Z,13.60
2022-11-16T08:34:55.711Z,13.80
2022-11-16T08:35:55.690Z,14.80
2022-11-16T08:36:55.691Z,14.70
2022-11-16T08:37:55.678Z,14.30
2022-11-16T08:38:55.654Z,14.60
2022-11-16T08:39:55.649Z,15.20
2022-11-16T08:40:55.644Z,15.10
2022-11-16T08:41:55.642Z,15.00
2022-11-16T08:42:55.603Z,14.40
2022-11-16T08:43:55.583Z,14.90
2022-11-16T08:44:55.574Z,14.70
2022-11-16T08:45:55.564Z,13.80
2022-11-16T08:46:55.582Z,14.10
2022-11-16T08:48:03.554Z,15.10
2022-11-16T08:48:56.533Z,13.60
2022-11-16T08:49:55.503Z,13.50
2022-11-16T08:51:16.317Z,14.80
2022-11-16T08:51:56.485Z,13.40
2022-11-16T08:52:55.477Z,13.20
2022-11-16T08:53:55.454Z,13.10
2022-11-16T08:54:55.471Z,14.60
2022-11-16T08:55:55.425Z,15.00
2022-11-16T08:56:55.433Z,13.10
2022-11-16T08:57:55.398Z,12.80
2022-11-16T08:58:58.416Z,13.50
2022-11-16T08:59:55.372Z,13.00
2022-11-16T09:00:55.367Z,12.80
2022-11-16T09:01:55.378Z,12.70
2022-11-16T09:02:55.339Z,12.80
2022-11-16T09:03:56.278Z,13.10
2022-11-16T09:04:55.312Z,12.10
2022-11-16T09:05:55.298Z,11.80
2022-11-16T09:06:55.372Z,12.70
2022-11-16T09:07:55.268Z,12.90
2022-11-16T09:08:55.259Z,13.30
2022-11-16T09:09:55.239Z,13.20
2022-11-16T09:10:55.233Z,13.00
2022-11-16T09:11:55.218Z,12.20
2022-11-16T09:12:55.208Z,13.30
2022-11-16T09:13:55.180Z,12.30
2022-11-16T09:14:55.180Z,12.40
2022-11-16T09:15:55.158Z,13.00
2022-11-16T09:16:55.162Z,12.80
2022-11-16T09:17:55.146Z,12.80
2022-11-16T09:18:56.080Z,13.00
2022-11-16T09:19:55.100Z,12.50
2022-11-16T09:20:55.100Z,12.70
2022-11-16T09:21:55.080Z,12.10
2022-11-16T09:22:55.078Z,11.70
2022-11-16T09:23:55.063Z,12.30
2022-11-16T09:24:55.043Z,11.90
2022-11-16T09:25:55.047Z,12.50
2022-11-16T09:26:55.021Z,12.20
2022-11-16T09:27:55.002Z,11.90
2022-11-16T09:28:54.983Z,11.20
2022-11-16T09:29:54.973Z,11.30
2022-11-16T09:30:54.972Z,11.50
2022-11-16T09:31:54.956Z,11.30
2022-11-16T09:32:54.944Z,10.70
2022-11-16T09:33:54.926Z,12.30
2022-11-16T09:34:54.943Z,11.80
2022-11-16T09:35:54.893Z,11.30
2022-11-16T09:36:54.934Z,11.50
2022-11-16T09:37:54.963Z,10.90
2022-11-16T09:39:29.560Z,11.40
2022-11-16T09:39:55.835Z,11.00
2022-11-16T09:40:54.855Z,11.20
2022-11-16T09:41:54.805Z,10.80
2022-11-16T09:42:54.819Z,10.60
2022-11-16T09:43:54.817Z,11.40
2022-11-16T09:44:54.811Z,10.60
2022-11-16T09:45:54.833Z,10.80
2022-11-16T09:46:54.776Z,11.30
2022-11-16T09:47:54.776Z,10.70
2022-11-16T09:48:54.736Z,10.30
2022-11-16T09:49:59.744Z,11.50
2022-11-16T09:50:55.686Z,11.60
2022-11-16T09:51:54.676Z,10.70
2022-11-16T09:52:54.758Z,11.30
2022-11-16T09:53:54.650Z,10.90
2022-11-16T09:54:54.668Z,11.00
2022-11-16T09:55:54.632Z,11.40
2022-11-16T09:56:54.608Z,11.40
2022-11-16T09:57:54.622Z,11.50
2022-11-16T09:58:54.587Z,11.10
2022-11-16T09:59:54.563Z,11.20
2022-11-16T10:00:54.644Z,11.00
2022-11-16T10:01:54.553Z,10.90
2022-11-16T10:02:54.529Z,11.10
2022-11-16T10:03:54.509Z,10.80
2022-11-16T10:04:58.155Z,10.60
2022-11-16T10:05:54.479Z,10.60
2022-11-16T10:06:54.520Z,11.10
2022-11-16T10:07:54.460Z,11.50
2022-11-16T10:08:54.443Z,11.10
2022-11-16T10:09:54.430Z,10.30
2022-11-16T10:10:54.411Z,11.20
2022-11-16T10:11:54.399Z,11.60
2022-11-16T10:12:54.401Z,10.30
2022-11-16T10:13:57.871Z,11.30
2022-11-16T10:14:54.361Z,11.40
2022-11-16T10:15:54.344Z,11.30
2022-11-16T10:16:54.329Z,10.90
2022-11-16T10:17:54.332Z,11.30
2022-11-16T10:18:54.313Z,11.00
2022-11-16T10:19:54.291Z,11.60
2022-11-16T10:20:54.283Z,11.70
2022-11-16T10:21:54.263Z,11.40
2022-11-16T10:22:54.263Z,11.40
2022-11-16T10:23:54.296Z,11.90
2022-11-16T10:24:54.372Z,12.40
2022-11-16T10:25:54.263Z,12.90
2022-11-16T10:26:54.216Z,12.10
2022-11-16T10:27:54.208Z,11.90
2022-11-16T10:28:54.175Z,11.80
2022-11-16T10:29:54.157Z,12.30
2022-11-16T10:30:54.144Z,11.90
2022-11-16T10:31:54.133Z,12.20
2022-11-16T10:32:54.126Z,11.90
2022-11-16T10:33:55.047Z,12.50
2022-11-16T10:34:54.092Z,12.40
2022-11-16T10:35:54.080Z,12.40
2022-11-16T10:36:54.069Z,11.90
2022-11-16T10:37:54.057Z,12.50
2022-11-16T10:38:54.037Z,12.00
2022-11-16T10:39:54.019Z,12.40
2022-11-16T10:40:54.007Z,12.70
2022-11-16T10:41:53.988Z,12.70
2022-11-16T10:42:53.987Z,11.70
2022-11-16T10:43:53.967Z,10.90
2022-11-16T10:44:53.959Z,11.70
2022-11-16T10:45:53.938Z,11.60
2022-11-16T10:46:53.929Z,12.60
2022-11-16T10:47:53.930Z,11.60
2022-11-16T10:48:53.899Z,12.60
2022-11-16T10:49:53.891Z,13.00
2022-11-16T10:50:53.879Z,12.10
2022-11-16T10:51:53.860Z,12.30
2022-11-16T10:52:53.874Z,12.20
2022-11-16T10:53:54.789Z,12.30
2022-11-16T10:54:53.829Z,12.00
2022-11-16T10:55:53.802Z,12.90
2022-11-16T10:56:53.797Z,12.10
2022-11-16T10:57:53.792Z,12.10
2022-11-16T10:58:53.771Z,11.40
2022-11-16T10:59:53.751Z,11.20
2022-11-16T11:00:53.780Z,12.40
2022-11-16T11:01:53.722Z,12.30
2022-11-16T11:02:53.720Z,10.20
2022-11-16T11:03:53.703Z,12.70
2022-11-16T11:04:53.683Z,11.70
2022-11-16T11:05:53.678Z,11.60
2022-11-16T11:06:53.774Z,11.80
2022-11-16T11:07:59.358Z,11.30
2022-11-16T11:08:54.643Z,11.80
2022-11-16T11:09:53.695Z,12.00
2022-11-16T11:10:53.695Z,11.20
2022-11-16T11:11:53.639Z,11.20
2022-11-16T11:12:53.612Z,12.00
2022-11-16T11:13:54.524Z,12.40
2022-11-16T11:14:53.556Z,11.80
2022-11-16T11:15:53.546Z,12.30
2022-11-16T11:16:53.555Z,12.50
2022-11-16T11:17:53.525Z,12.50
2022-11-16T11:18:53.513Z,12.50
2022-11-16T11:19:53.510Z,12.50
2022-11-16T11:20:53.469Z,13.10
2022-11-16T11:21:53.467Z,14.20
2022-11-16T11:22:53.466Z,13.30
2022-11-16T11:23:53.431Z,12.60
2022-11-16T11:24:53.416Z,12.90
2022-11-16T11:25:53.399Z,12.90
2022-11-16T11:26:53.388Z,12.30
2022-11-16T11:27:53.384Z,11.50
2022-11-16T11:28:53.369Z,12.60
2022-11-16T11:29:53.348Z,12.70
2022-11-16T11:30:53.340Z,12.30
2022-11-16T11:31:53.321Z,12.30
2022-11-16T11:32:53.330Z,12.20
2022-11-16T11:33:53.290Z,12.90
2022-11-16T11:34:53.298Z,12.00
2022-11-16T11:35:53.271Z,12.00
2022-11-16T11:36:53.282Z,12.60
2022-11-16T11:37:53.252Z,12.80
2022-11-16T11:38:53.322Z,12.70
2022-11-16T11:39:53.210Z,12.10
2022-11-16T11:40:53.202Z,12.70
2022-11-16T11:41:53.192Z,11.70
2022-11-16T11:42:53.189Z,12.60
2022-11-16T11:43:54.103Z,12.80
2022-11-16T11:44:53.152Z,12.60
2022-11-16T11:45:53.153Z,11.20
2022-11-16T11:47:58.971Z,12.60
2022-11-16T11:48:54.105Z,13.60
2022-11-16T11:49:53.084Z,12.40
2022-11-16T11:50:53.075Z,11.90
2022-11-16T11:51:53.054Z,11.60
2022-11-16T11:52:53.061Z,12.50
2022-11-16T11:53:53.024Z,11.40
2022-11-16T11:54:53.019Z,11.70
2022-11-16T11:55:53.005Z,11.50
2022-11-16T11:56:52.995Z,11.30
2022-11-16T11:57:53.020Z,11.80
2022-11-16T11:58:53.206Z,11.60
2022-11-16T11:59:53.904Z,12.50
2022-11-16T12:00:52.936Z,12.00
2022-11-16T12:01:52.926Z,11.80
2022-11-16T12:02:53.022Z,12.80
2022-11-16T12:03:52.897Z,12.80
2022-11-16T12:04:52.886Z,11.50
2022-11-16T12:05:52.886Z,12.10
2022-11-16T12:06:52.950Z,12.20
2022-11-16T12:07:52.848Z,11.40
2022-11-16T12:08:52.827Z,12.20
2022-11-16T12:09:52.807Z,12.20
2022-11-16T12:10:52.810Z,12.30
2022-11-16T12:11:52.789Z,13.10
2022-11-16T12:12:53.738Z,13.50
2022-11-16T12:13:52.807Z,16.60
2022-11-16T12:14:52.754Z,16.80
2022-11-16T12:15:52.734Z,15.10
2022-11-16T12:16:52.719Z,13.80
2022-11-16T12:17:52.719Z,12.60
2022-11-16T12:18:52.699Z,13.70
2022-11-16T12:19:52.677Z,13.30
2022-11-16T12:20:52.660Z,14.00
2022-11-16T12:21:52.650Z,16.20
2022-11-16T12:22:52.662Z,16.10
2022-11-16T12:23:52.629Z,17.80
2022-11-16T12:24:52.618Z,18.70
2022-11-16T12:25:52.591Z,18.40
2022-11-16T12:26:52.589Z,17.20
2022-11-16T12:27:52.583Z,17.10
2022-11-16T12:28:52.557Z,17.10
2022-11-16T12:29:52.562Z,14.20
2022-11-16T12:30:52.533Z,13.80
2022-11-16T12:31:52.522Z,13.30
2022-11-16T12:32:53.466Z,13.40
2022-11-16T12:33:52.494Z,13.10
2022-11-16T12:34:52.502Z,13.20
2022-11-16T12:35:52.471Z,12.60
2022-11-16T12:36:52.455Z,12.40
2022-11-16T12:37:52.459Z,12.70
2022-11-16T12:38:52.433Z,12.30
2022-11-16T12:39:52.429Z,12.20
2022-11-16T12:40:52.397Z,12.30
2022-11-16T12:41:52.394Z,12.00
2022-11-16T12:42:52.375Z,12.30
2022-11-16T12:43:52.354Z,11.70
2022-11-16T12:44:52.346Z,12.20
2022-11-16T12:45:52.349Z,12.40
2022-11-16T12:46:52.316Z,10.70
2022-11-16T12:47:52.316Z,11.80
2022-11-16T12:48:52.296Z,11.60
2022-11-16T12:49:52.276Z,11.90
2022-11-16T12:50:52.258Z,11.50
2022-11-16T12:51:52.258Z,13.00
2022-11-16T12:52:52.239Z,12.50
2022-11-16T12:53:52.261Z,12.90
2022-11-16T12:55:23.951Z,11.50
2022-11-16T12:55:53.204Z,13.30
2022-11-16T12:56:52.186Z,12.10
2022-11-16T12:57:52.189Z,12.20
2022-11-16T12:58:52.159Z,12.80
2022-11-16T12:59:52.139Z,12.40
2022-11-16T13:00:52.216Z,12.60
2022-11-16T13:01:56.296Z,12.50
2022-11-16T13:02:54.592Z,12.50
2022-11-16T13:03:52.091Z,12.60
2022-11-16T13:04:52.087Z,12.40
2022-11-16T13:05:52.070Z,12.70
2022-11-16T13:06:52.108Z,13.00
2022-11-16T13:07:52.041Z,13.30
2022-11-16T13:08:52.042Z,12.40
2022-11-16T13:09:52.012Z,12.60
2022-11-16T13:10:51.992Z,12.90
2022-11-16T13:11:51.986Z,15.00
2022-11-16T13:12:55.858Z,13.20
2022-11-16T13:13:54.049Z,13.50
2022-11-16T13:14:51.943Z,12.70
2022-11-16T13:15:51.934Z,13.10
2022-11-16T13:16:51.912Z,13.00
2022-11-16T13:17:51.918Z,13.10
2022-11-16T13:18:51.894Z,13.60
2022-11-16T13:19:51.881Z,14.80
2022-11-16T13:20:51.863Z,13.20
2022-11-16T13:21:51.844Z,13.00
2022-11-16T13:22:51.845Z,14.10
2022-11-16T13:23:51.831Z,13.80
2022-11-16T13:24:51.804Z,12.30
2022-11-16T13:25:51.806Z,14.10
2022-11-16T13:26:51.775Z,13.00
2022-11-16T13:27:51.777Z,13.70
2022-11-16T13:28:51.745Z,12.50
2022-11-16T13:29:51.739Z,13.50
2022-11-16T13:30:52.667Z,12.60
2022-11-16T13:31:51.711Z,12.60
2022-11-16T13:32:51.718Z,12.60
2022-11-16T13:33:51.705Z,14.00
2022-11-16T13:34:51.666Z,13.10
2022-11-16T13:35:51.660Z,13.50
2022-11-16T13:36:51.658Z,13.20
2022-11-16T13:37:51.636Z,12.90
2022-11-16T13:38:51.610Z,13.90
2022-11-16T13:39:51.597Z,14.20
2022-11-16T13:40:51.598Z,14.60
2022-11-16T13:41:51.591Z,13.30
2022-11-16T13:42:51.569Z,13.10
2022-11-16T13:43:51.549Z,14.00
2022-11-16T13:44:51.800Z,13.70
2022-11-16T13:45:51.518Z,14.10
2022-11-16T13:46:56.161Z,13.70
2022-11-16T13:47:52.502Z,14.00
2022-11-16T13:48:51.475Z,14.80
2022-11-16T13:49:51.460Z,13.50
2022-11-16T13:50:51.440Z,13.80
2022-11-16T13:51:51.440Z,13.70
2022-11-16T13:53:57.644Z,14.50
2022-11-16T13:54:52.821Z,14.10
2022-11-16T13:55:51.387Z,14.50
2022-11-16T13:56:51.374Z,14.60
2022-11-16T13:57:51.363Z,14.50
2022-11-16T13:58:51.344Z,14.90
2022-11-16T13:59:51.323Z,15.30
2022-11-16T14:00:51.383Z,15.50
2022-11-16T14:01:51.304Z,16.20
2022-11-16T14:02:51.303Z,15.50
2022-11-16T14:03:51.275Z,16.80
2022-11-16T14:04:51.264Z,15.90
2022-11-16T14:05:51.248Z,16.00
2022-11-16T14:06:51.245Z,16.40
2022-11-16T14:07:51.234Z,16.70
2022-11-16T14:08:51.210Z,17.60
2022-11-16T14:09:51.194Z,17.10
2022-11-16T14:10:51.174Z,17.20
2022-11-16T14:11:51.166Z,16.70
2022-11-16T14:12:51.155Z,16.10
2022-11-16T14:13:51.134Z,16.30
2022-11-16T14:14:51.113Z,17.20
2022-11-16T14:15:51.108Z,17.90
2022-11-16T14:16:51.088Z,16.30
2022-11-16T14:17:51.112Z,17.70
2022-11-16T14:18:51.058Z,17.80
2022-11-16T14:19:51.057Z,17.70
2022-11-16T14:20:51.068Z,18.40
2022-11-16T14:21:51.069Z,18.20
2022-11-16T14:22:51.017Z,17.40
2022-11-16T14:23:50.997Z,17.90
2022-11-16T14:24:50.979Z,18.00
2022-11-16T14:25:50.978Z,18.80
2022-11-16T14:26:51.902Z,18.00
2022-11-16T14:27:50.951Z,18.50
2022-11-16T14:28:50.957Z,18.40
2022-11-16T14:29:51.187Z,19.10
2022-11-16T14:30:51.405Z,19.40
2022-11-16T14:31:51.209Z,19.30
2022-11-16T14:32:51.039Z,20.20
2022-11-16T14:33:50.861Z,19.50
2022-11-16T14:34:50.918Z,21.40
2022-11-16T14:35:51.000Z,20.30
2022-11-16T14:36:52.925Z,20.20
2022-11-16T14:37:51.007Z,21.20
2022-11-16T14:38:50.792Z,20.70
2022-11-16T14:39:50.801Z,20.20
2022-11-16T14:40:53.639Z,21.40
2022-11-16T14:41:51.751Z,19.50
2022-11-16T14:43:14.981Z,20.60
2022-11-16T14:43:52.422Z,19.70
2022-11-16T14:44:50.701Z,20.30
2022-11-16T14:45:50.702Z,21.00
2022-11-16T14:46:50.691Z,21.90
2022-11-16T14:47:50.683Z,23.20
2022-11-16T14:48:50.691Z,22.60
2022-11-16T14:49:50.648Z,23.80
2022-11-16T14:50:50.624Z,23.50
2022-11-16T14:51:50.623Z,26.00
2022-11-16T14:52:50.624Z,26.40
2022-11-16T14:53:50.616Z,29.50
2022-11-16T14:54:50.575Z,30.60
2022-11-16T14:55:50.579Z,33.20
2022-11-16T14:56:50.564Z,33.10
2022-11-16T14:57:50.555Z,33.50
2022-11-16T14:58:50.525Z,35.80
2022-11-16T14:59:50.505Z,37.80
2022-11-16T15:00:50.487Z,39.30
2022-11-16T15:01:50.489Z,39.50
2022-11-16T15:02:51.832Z,42.60
2022-11-16T15:03:50.493Z,43.10
2022-11-16T15:04:50.438Z,48.50
2022-11-16T15:05:50.427Z,48.70
2022-11-16T15:06:50.488Z,52.20
2022-11-16T15:07:50.409Z,51.90
2022-11-16T15:08:50.390Z,53.40
2022-11-16T15:09:50.376Z,59.10
2022-11-16T15:10:52.495Z,60.50
2022-11-16T15:11:50.344Z,58.10
2022-11-16T15:12:50.336Z,61.00
2022-11-16T15:13:50.328Z,61.00
2022-11-16T15:14:50.329Z,60.60
2022-11-16T15:15:50.302Z,63.10
2022-11-16T15:16:50.274Z,57.70
2022-11-16T15:17:50.279Z,60.30
2022-11-16T15:18:50.256Z,62.00
2022-11-16T15:19:50.238Z,62.50
2022-11-16T15:20:50.220Z,62.60
2022-11-16T15:21:50.211Z,60.10
2022-11-16T15:22:50.200Z,59.20
2022-11-16T15:24:08.601Z,63.30
2022-11-16T15:24:51.177Z,65.90
2022-11-16T15:25:50.162Z,64.70
2022-11-16T15:26:50.139Z,65.10
2022-11-16T15:27:50.132Z,65.20
2022-11-16T15:28:50.349Z,65.10
2022-11-16T15:29:50.116Z,64.30
2022-11-16T15:30:50.088Z,63.90
2022-11-16T15:31:50.072Z,64.70
2022-11-16T15:32:50.083Z,65.40
2022-11-16T15:33:50.043Z,67.80
2022-11-16T15:34:50.043Z,66.40
2022-11-16T15:35:50.037Z,68.00
2022-11-16T15:36:50.012Z,69.50
2022-11-16T15:37:50.067Z,68.90
2022-11-16T15:38:49.976Z,67.90
2022-11-16T15:39:49.965Z,67.40
2022-11-16T15:40:49.954Z,71.10
2022-11-16T15:41:49.939Z,71.00
2022-11-16T15:42:49.956Z,71.80
2022-11-16T15:44:11.702Z,74.40
2022-11-16T15:44:50.903Z,76.70
2022-11-16T15:45:49.884Z,72.80
2022-11-16T15:46:49.888Z,74.60
2022-11-16T15:47:49.862Z,73.30
2022-11-16T15:48:49.837Z,73.80
2022-11-16T15:49:49.836Z,76.00
2022-11-16T15:50:49.818Z,73.20
2022-11-16T15:51:49.800Z,74.80
2022-11-16T15:52:49.788Z,74.60
2022-11-16T15:53:49.785Z,76.40
2022-11-16T15:54:49.767Z,76.40
2022-11-16T15:55:50.179Z,79.00
2022-11-16T15:56:49.748Z,82.70
2022-11-16T15:57:49.728Z,84.20
2022-11-16T15:58:49.737Z,86.30
2022-11-16T15:59:55.589Z,83.40
2022-11-16T16:03:42.230Z,85.00
2022-11-16T16:03:46.990Z,80.50
2022-11-16T16:04:46.984Z,80.50
2022-11-16T16:05:46.971Z,82.70
2022-11-16T16:06:46.952Z,82.60
2022-11-16T16:07:46.995Z,82.70
2022-11-16T16:08:46.921Z,83.40
2022-11-16T16:09:46.911Z,83.30
2022-11-16T16:10:46.891Z,84.90
2022-11-16T16:11:46.904Z,85.10
2022-11-16T16:12:46.873Z,84.80
2022-11-16T16:13:46.853Z,85.70
2022-11-16T16:14:46.852Z,83.90
2022-11-16T16:15:46.843Z,83.30
2022-11-16T16:16:46.815Z,83.00
2022-11-16T16:17:46.814Z,83.60
2022-11-16T16:18:46.785Z,84.30
2022-11-16T16:19:46.776Z,85.10
2022-11-16T16:20:47.706Z,82.60
2022-11-16T16:21:46.765Z,81.50
2022-11-16T16:22:46.734Z,83.20
2022-11-16T16:23:46.732Z,84.50
2022-11-16T16:24:46.709Z,83.80
2022-11-16T16:25:50.561Z,82.90
2022-11-16T16:26:46.747Z,82.70
2022-11-16T16:27:46.676Z,81.70
2022-11-16T16:28:47.280Z,82.40
2022-11-16T16:29:46.646Z,79.40
2022-11-16T16:30:46.626Z,79.10
2022-11-16T16:31:46.646Z,77.90
2022-11-16T16:32:48.946Z,76.90
2022-11-16T16:33:48.637Z,75.60
2022-11-16T16:34:47.310Z,74.30
2022-11-16T16:35:46.556Z,74.00
2022-11-16T16:36:46.551Z,75.80
2022-11-16T16:37:46.548Z,75.10
2022-11-16T16:38:47.147Z,73.70
2022-11-16T16:39:46.517Z,77.10
2022-11-16T16:40:46.588Z,78.00
2022-11-16T16:41:46.490Z,71.70
2022-11-16T16:42:46.490Z,71.50
2022-11-16T16:43:46.736Z,74.70
2022-11-16T16:44:47.988Z,73.00
2022-11-16T16:45:47.169Z,72.70
2022-11-16T16:46:48.940Z,70.50
2022-11-16T16:47:47.131Z,70.50
2022-11-16T16:48:46.836Z,71.20
2022-11-16T16:49:46.540Z,72.90
2022-11-16T16:50:47.824Z,73.10
2022-11-16T16:51:55.709Z,74.50
2022-11-16T16:52:50.396Z,73.60
2022-11-16T16:54:05.017Z,74.60
2022-11-16T16:54:46.552Z,71.10
2022-11-16T16:55:46.401Z,72.10
2022-11-16T16:56:46.632Z,71.10
2022-11-16T16:57:47.889Z,71.30
2022-11-16T16:58:48.112Z,70.50
2022-11-16T16:59:48.412Z,73.00
2022-11-16T17:00:46.292Z,75.70
2022-11-16T17:01:46.213Z,75.30
2022-11-16T17:02:47.520Z,73.10
2022-11-16T17:03:46.743Z,70.30
2022-11-16T17:04:46.193Z,70.10
2022-11-16T17:05:46.232Z,66.90
2022-11-16T17:06:46.745Z,68.30
2022-11-16T17:07:46.147Z,69.10
2022-11-16T17:08:46.424Z,67.60
2022-11-16T17:09:47.174Z,67.20
2022-11-16T17:10:50.016Z,68.30
2022-11-16T17:11:46.135Z,68.50
2022-11-16T17:12:46.400Z,67.80
2022-11-16T17:13:46.125Z,68.70
2022-11-16T17:14:46.371Z,64.30
2022-11-16T17:15:46.015Z,64.80
2022-11-16T17:16:46.356Z,64.80
2022-11-16T17:17:50.235Z,65.60
2022-11-16T17:18:46.348Z,64.40
2022-11-16T17:19:46.156Z,64.90
2022-11-16T17:20:45.948Z,64.40
2022-11-16T17:21:46.588Z,64.30
2022-11-16T17:22:45.966Z,64.80
2022-11-16T17:23:45.917Z,61.80
2022-11-16T17:24:45.911Z,60.20
2022-11-16T17:25:45.972Z,59.00
2022-11-16T17:26:46.368Z,59.10
2022-11-16T17:27:46.126Z,56.50
2022-11-16T17:28:45.838Z,55.50
2022-11-16T17:29:50.759Z,53.60
2022-11-16T17:30:45.823Z,53.10
2022-11-16T17:31:45.808Z,53.20
2022-11-16T17:32:45.801Z,53.00
2022-11-16T17:33:48.151Z,52.20
2022-11-16T17:34:45.790Z,52.10
2022-11-16T17:35:45.754Z,53.20
2022-11-16T17:36:46.353Z,53.60
2022-11-16T17:37:45.741Z,55.40
2022-11-16T17:38:50.971Z,52.40
2022-11-16T17:39:46.070Z,51.40
2022-11-16T17:40:50.949Z,50.30
2022-11-16T17:41:47.101Z,51.60
2022-11-16T17:42:48.421Z,50.10
2022-11-16T17:43:46.082Z,48.90
2022-11-16T17:44:45.824Z,49.60
2022-11-16T17:45:46.092Z,48.20
2022-11-16T17:46:47.407Z,45.60
2022-11-16T17:47:47.154Z,44.90
2022-11-16T17:48:45.573Z,46.90
2022-11-16T17:49:45.624Z,47.20
2022-11-16T17:50:46.925Z,45.30
2022-11-16T17:51:45.543Z,46.40
2022-11-16T17:52:48.475Z,46.60
2022-11-16T17:53:48.734Z,46.70
2022-11-16T17:54:46.432Z,45.90
2022-11-16T17:55:46.705Z,47.20
2022-11-16T17:56:45.935Z,46.50
2022-11-16T17:57:46.745Z,44.40
2022-11-16T17:58:45.461Z,45.30
2022-11-16T17:59:45.418Z,43.60
2022-11-16T18:00:47.061Z,43.40
2022-11-16T18:01:46.279Z,43.80
2022-11-16T18:02:48.563Z,42.40
2022-11-16T18:03:46.746Z,41.70
2022-11-16T18:04:49.780Z,41.30